Time;durP1;ratioP1;P1;durP2;ratioP2;P2;SDS_P1;SDS_P2;PMS_P1;PMS_P2;Temp;Humidity;BMP_temperature;BMP_pressure;BME280_temperature;BME280_humidity;BME280_pressure;Samples;Min_cycle;Max_cycle;Signal;HPM_P1;HPM_P2
2022/07/10 00:00:15;;;;;;;1.65;1.23;;;19.20;58.50;;;;;;5048872;28;20056;-59
2022/07/10 00:02:42;;;;;;;2.53;1.45;;;19.20;59.20;;;;;;5049379;28;20037;-58
2022/07/10 00:05:09;;;;;;;12.90;8.27;;;19.10;59.10;;;;;;5060718;28;20033;-59
2022/07/10 00:07:35;;;;;;;9.55;6.95;;;19.00;59.40;;;;;;5050825;28;20025;-59
2022/07/10 00:10:02;;;;;;;3.97;3.20;;;19.00;59.10;;;;;;5057421;28;20032;-57
2022/07/10 00:12:28;;;;;;;3.30;2.10;;;19.00;59.10;;;;;;5050574;28;20092;-59
2022/07/10 00:14:54;;;;;;;1.67;1.58;;;18.90;59.00;;;;;;5063961;28;20480;-59
2022/07/10 00:17:20;;;;;;;2.00;1.35;;;18.90;59.10;;;;;;5047260;28;20025;-58
2022/07/10 00:19:45;;;;;;;2.47;1.63;;;18.80;59.10;;;;;;5054222;28;20022;-59
2022/07/10 00:22:11;;;;;;;3.05;1.77;;;18.80;59.20;;;;;;5053341;28;20224;-60
2022/07/10 00:24:37;;;;;;;4.55;1.85;;;18.80;59.40;;;;;;5056760;28;20029;-59
2022/07/10 00:27:03;;;;;;;1.73;1.48;;;18.70;59.50;;;;;;5046732;28;20024;-58
2022/07/10 00:29:28;;;;;;;2.70;1.65;;;18.60;59.70;;;;;;5062203;28;20049;-60
2022/07/10 00:31:54;;;;;;;2.08;1.38;;;18.60;59.80;;;;;;5053317;28;20056;-59
2022/07/10 00:34:20;;;;;;;2.90;1.65;;;18.60;60.00;;;;;;5049761;28;20029;-61
2022/07/10 00:36:45;;;;;;;1.88;1.55;;;18.60;60.20;;;;;;5063784;28;20083;-59
2022/07/10 00:39:11;;;;;;;2.20;1.90;;;18.50;60.30;;;;;;5050219;28;20029;-58
2022/07/10 00:41:37;;;;;;;1.90;1.50;;;18.50;60.50;;;;;;5056935;28;20048;-58
2022/07/10 00:44:03;;;;;;;2.08;1.55;;;18.50;60.60;;;;;;5047597;28;20099;-58
2022/07/10 00:46:30;;;;;;;1.77;1.67;;;18.50;60.70;;;;;;5049934;28;20051;-58
2022/07/10 00:48:57;;;;;;;1.80;1.67;;;18.50;60.70;;;;;;5066773;28;20539;-60
2022/07/10 00:51:28;;;;;;;2.65;1.40;;;18.40;60.70;;;;;;5039814;28;20112;-58
2022/07/10 00:53:53;;;;;;;2.03;1.52;;;18.40;60.90;;;;;;5055714;28;20025;-59
2022/07/10 00:56:23;;;;;;;2.50;1.60;;;18.40;60.50;;;;;;5066276;28;20021;-60
2022/07/10 00:58:50;;;;;;;1.77;1.50;;;18.30;60.70;;;;;;5051324;28;20028;-58
2022/07/10 01:01:17;;;;;;;3.72;1.23;;;18.30;61.00;;;;;;5058542;28;20033;-58
2022/07/10 01:03:45;;;;;;;2.08;1.55;;;18.20;61.00;;;;;;5057743;28;20034;-59
2022/07/10 01:06:11;;;;;;;2.05;1.58;;;18.20;61.10;;;;;;5050846;28;20092;-59
2022/07/10 01:08:37;;;;;;;2.58;1.52;;;18.20;61.10;;;;;;5057244;28;20087;-58
2022/07/10 01:11:03;;;;;;;3.38;1.80;;;18.10;61.10;;;;;;5046110;28;20075;-60
2022/07/10 01:13:29;;;;;;;1.70;1.60;;;18.10;61.20;;;;;;5050172;28;20025;-58
2022/07/10 01:16:03;;;;;;;3.08;1.80;;;18.10;61.30;;;;;;5047170;28;20033;-59
2022/07/10 01:18:29;;;;;;;5.25;1.92;;;18.00;62.40;;;;;;5043895;28;20030;-60
2022/07/10 01:20:56;;;;;;;3.13;1.90;;;18.00;61.40;;;;;;5040454;28;20053;-61
2022/07/10 01:23:22;;;;;;;2.08;1.60;;;18.00;61.60;;;;;;5039881;28;20032;-58
2022/07/10 01:25:48;;;;;;;3.78;1.85;;;18.00;61.60;;;;;;5060315;28;20025;-59
2022/07/10 01:28:20;;;;;;;4.15;1.63;;;17.90;61.80;;;;;;5048860;28;20132;-60
2022/07/10 01:30:46;;;;;;;2.00;1.73;;;17.90;62.00;;;;;;5049893;28;20029;-59
2022/07/10 01:33:12;;;;;;;3.72;1.75;;;17.90;61.90;;;;;;5062478;28;20598;-59
2022/07/10 01:35:38;;;;;;;3.75;1.70;;;17.90;62.10;;;;;;5053280;28;20033;-58
2022/07/10 01:38:04;;;;;;;5.95;1.85;;;17.80;62.10;;;;;;5052732;28;20025;-59
2022/07/10 01:40:30;;;;;;;1.95;1.70;;;17.80;62.10;;;;;;5039487;28;20033;-59
2022/07/10 01:42:56;;;;;;;1.40;1.30;;;17.80;62.00;;;;;;5030742;28;20013;-59
2022/07/10 01:45:21;;;;;;;3.03;1.52;;;17.80;62.00;;;;;;5045994;28;20064;-58
2022/07/10 01:47:47;;;;;;;2.20;1.77;;;17.80;62.10;;;;;;5061036;28;20033;-60
2022/07/10 01:50:13;;;;;;;1.92;1.55;;;17.80;62.10;;;;;;5043975;28;20026;-60
2022/07/10 01:52:39;;;;;;;2.28;1.77;;;17.70;62.00;;;;;;5045431;28;20392;-59
2022/07/10 01:55:06;;;;;;;1.90;1.70;;;17.70;62.10;;;;;;5028414;28;20097;-59
2022/07/10 01:57:31;;;;;;;1.60;1.48;;;17.70;62.10;;;;;;5048139;28;20026;-60
2022/07/10 01:59:57;;;;;;;5.97;1.98;;;17.60;62.20;;;;;;5058258;28;20174;-59
2022/07/10 02:02:23;;;;;;;3.00;1.70;;;17.60;62.20;;;;;;5045911;28;20021;-59
2022/07/10 02:04:48;;;;;;;3.08;1.90;;;17.60;62.30;;;;;;5049189;28;20391;-60
2022/07/10 02:07:16;;;;;;;5.47;1.85;;;17.50;62.30;;;;;;5051277;28;20030;-58
2022/07/10 02:09:44;;;;;;;3.05;2.00;;;17.50;62.40;;;;;;5057583;28;20033;-59
2022/07/10 02:12:11;;;;;;;2.67;1.88;;;17.50;62.30;;;;;;5048240;28;20507;-59
2022/07/10 02:14:37;;;;;;;2.25;1.75;;;17.40;62.30;;;;;;5046109;28;20081;-58
2022/07/10 02:17:04;;;;;;;2.13;1.88;;;17.40;62.40;;;;;;5051540;28;20048;-59
2022/07/10 02:19:30;;;;;;;3.20;1.98;;;17.40;62.60;;;;;;5055625;28;20030;-59
2022/07/10 02:21:55;;;;;;;2.97;2.30;;;17.40;62.70;;;;;;5048979;28;20050;-58
2022/07/10 02:24:21;;;;;;;2.58;1.95;;;17.30;62.50;;;;;;5053500;28;20025;-58
2022/07/10 02:26:47;;;;;;;3.17;2.20;;;17.30;62.30;;;;;;5046490;28;20033;-59
2022/07/10 02:29:13;;;;;;;3.63;1.77;;;17.30;62.40;;;;;;5050690;28;20038;-58
2022/07/10 02:31:42;;;;;;;2.55;2.00;;;17.20;62.40;;;;;;5061685;28;20030;-60
2022/07/10 02:34:08;;;;;;;5.57;1.85;;;17.20;62.40;;;;;;5056573;28;20036;-60
2022/07/10 02:36:34;;;;;;;2.17;1.98;;;17.20;62.60;;;;;;5044008;28;20045;-60
2022/07/10 02:39:00;;;;;;;2.70;2.15;;;17.10;62.70;;;;;;5058408;28;20030;-59
2022/07/10 02:41:26;;;;;;;4.40;1.90;;;17.10;62.70;;;;;;5046325;28;20082;-59
2022/07/10 02:43:52;;;;;;;6.75;2.03;;;17.00;62.70;;;;;;5037240;28;20036;-60
2022/07/10 02:46:18;;;;;;;2.75;2.28;;;17.00;62.80;;;;;;5057269;28;20059;-60
2022/07/10 02:48:44;;;;;;;2.08;1.92;;;17.00;62.80;;;;;;5057807;28;20025;-60
2022/07/10 02:51:09;;;;;;;3.72;2.10;;;16.90;62.70;;;;;;5049395;28;20021;-60
2022/07/10 02:53:35;;;;;;;3.08;2.20;;;16.90;62.70;;;;;;5057480;28;20021;-60
2022/07/10 02:56:01;;;;;;;3.17;2.10;;;16.90;62.70;;;;;;5059985;28;20029;-60
2022/07/10 02:58:26;;;;;;;4.78;2.58;;;16.80;62.70;;;;;;5049593;28;20017;-59
2022/07/10 03:00:53;;;;;;;4.07;3.42;;;16.80;62.80;;;;;;5044095;28;20052;-59
2022/07/10 03:03:18;;;;;;;6.13;2.88;;;16.70;62.90;;;;;;5047469;28;20090;-60
2022/07/10 03:05:45;;;;;;;3.88;2.70;;;16.70;63.00;;;;;;5043694;28;20036;-59
2022/07/10 03:08:11;;;;;;;9.85;2.40;;;16.70;63.20;;;;;;5058028;28;20140;-59
2022/07/10 03:10:36;;;;;;;2.97;2.30;;;16.70;63.30;;;;;;5046109;28;20030;-60
2022/07/10 03:13:02;;;;;;;3.00;2.13;;;16.60;63.50;;;;;;5047488;28;20061;-60
2022/07/10 03:15:28;;;;;;;2.35;2.00;;;16.60;63.70;;;;;;5046659;28;20029;-58
2022/07/10 03:17:54;;;;;;;4.15;2.17;;;16.60;63.70;;;;;;5047471;28;20053;-60
2022/07/10 03:20:20;;;;;;;3.60;2.40;;;16.60;64.10;;;;;;5053845;28;20033;-60
2022/07/10 03:22:45;;;;;;;2.75;1.90;;;16.60;64.30;;;;;;5041018;28;20029;-58
2022/07/10 03:25:11;;;;;;;3.17;2.50;;;16.60;64.30;;;;;;4962980;28;20044;-59
2022/07/10 03:27:37;;;;;;;2.38;2.17;;;16.60;64.20;;;;;;5044869;28;20108;-58
2022/07/10 03:30:04;;;;;;;2.50;2.25;;;16.70;64.60;;;;;;5052688;28;20064;-59
2022/07/10 03:32:29;;;;;;;3.22;2.30;;;16.60;65.00;;;;;;5055753;28;20025;-60
2022/07/10 03:34:55;;;;;;;2.95;2.30;;;16.70;65.00;;;;;;5047109;28;20424;-60
2022/07/10 03:37:21;;;;;;;2.85;2.03;;;16.70;65.10;;;;;;5044931;28;20030;-58
2022/07/10 03:39:47;;;;;;;2.88;2.03;;;16.70;65.20;;;;;;5055024;28;20503;-59
2022/07/10 03:42:13;;;;;;;3.20;2.35;;;16.80;65.20;;;;;;5029374;28;20053;-60
2022/07/10 03:44:38;;;;;;;6.28;2.25;;;16.80;65.30;;;;;;5049396;28;20036;-59
2022/07/10 03:47:04;;;;;;;3.40;2.40;;;16.90;65.40;;;;;;5047992;28;20088;-60
2022/07/10 03:49:29;;;;;;;2.42;2.08;;;16.90;65.30;;;;;;5045634;28;20028;-59
2022/07/10 03:51:59;;;;;;;4.30;2.30;;;16.90;65.50;;;;;;5044802;28;20033;-60
2022/07/10 03:54:25;;;;;;;2.78;2.20;;;16.90;66.00;;;;;;5047472;28;20033;-59
2022/07/10 03:59:34;;;;;;;3.03;2.05;;;17.00;65.80;;;;;;5036630;28;20032;-60
2022/07/10 04:02:00;;;;;;;2.40;1.90;;;17.10;65.70;;;;;;5043371;28;20073;-60
2022/07/10 04:04:26;;;;;;;3.45;2.38;;;17.10;65.60;;;;;;5052193;28;20041;-59
2022/07/10 04:06:51;;;;;;;4.07;2.30;;;17.10;65.60;;;;;;5043996;28;20033;-60
2022/07/10 04:09:17;;;;;;;3.58;2.03;;;17.20;65.60;;;;;;5045001;28;20056;-58
2022/07/10 04:11:42;;;;;;;3.42;2.25;;;17.20;65.60;;;;;;5050797;28;20048;-59
2022/07/10 04:14:08;;;;;;;6.82;2.65;;;17.20;65.60;;;;;;5038055;28;20049;-58
2022/07/10 04:16:34;;;;;;;3.97;2.65;;;17.20;66.00;;;;;;5044522;28;20025;-60
2022/07/10 04:18:59;;;;;;;3.90;2.53;;;17.30;66.00;;;;;;5054602;28;20029;-59
2022/07/10 04:21:25;;;;;;;5.55;3.00;;;17.40;66.10;;;;;;5044871;28;20113;-59
2022/07/10 04:23:51;;;;;;;6.30;2.67;;;17.40;66.00;;;;;;5043075;28;20021;-59
2022/07/10 04:26:16;;;;;;;5.18;2.47;;;17.40;65.80;;;;;;5060090;28;20021;-59
2022/07/10 04:28:42;;;;;;;6.07;2.63;;;17.50;65.90;;;;;;5055690;28;20061;-61
2022/07/10 04:31:08;;;;;;;11.93;2.80;;;17.50;65.90;;;;;;5047237;28;20101;-58
2022/07/10 04:33:34;;;;;;;3.63;2.47;;;17.60;65.70;;;;;;5040845;28;20038;-60
2022/07/10 04:36:00;;;;;;;4.57;2.38;;;17.60;65.60;;;;;;5055153;28;20029;-59
2022/07/10 04:38:25;;;;;;;3.33;2.65;;;17.70;65.60;;;;;;5067845;28;20025;-58
2022/07/10 04:40:51;;;;;;;3.03;2.33;;;17.80;65.60;;;;;;5046047;28;20037;-59
2022/07/10 04:43:17;;;;;;;5.68;2.45;;;17.80;65.30;;;;;;5063498;28;20428;-59
2022/07/10 04:45:42;;;;;;;5.60;2.80;;;17.80;65.20;;;;;;5051769;28;20037;-59
2022/07/10 04:48:08;;;;;;;2.58;1.92;;;17.90;65.30;;;;;;5068467;28;20025;-59
2022/07/10 04:50:34;;;;;;;4.80;2.60;;;17.90;65.20;;;;;;5052536;28;20081;-60
2022/07/10 04:53:00;;;;;;;4.28;2.20;;;18.00;65.00;;;;;;5058444;28;20091;-57
2022/07/10 04:55:25;;;;;;;5.50;2.40;;;18.00;64.80;;;;;;5046886;28;20041;-58
2022/07/10 04:57:51;;;;;;;5.43;2.83;;;18.10;64.70;;;;;;5065220;28;20089;-61
2022/07/10 05:00:17;;;;;;;4.40;2.17;;;18.10;64.60;;;;;;5047898;28;20045;-58
2022/07/10 05:02:42;;;;;;;4.18;2.38;;;18.10;64.50;;;;;;5059442;28;20037;-59
2022/07/10 05:05:08;;;;;;;2.30;2.05;;;18.10;64.50;;;;;;5063525;28;20076;-59
2022/07/10 05:07:34;;;;;;;5.50;2.42;;;18.10;64.50;;;;;;5055038;28;20033;-61
2022/07/10 05:10:00;;;;;;;5.28;2.28;;;18.10;64.60;;;;;;5064890;28;20025;-60
2022/07/10 05:12:26;;;;;;;3.33;2.10;;;18.10;64.60;;;;;;5042587;28;20117;-58
2022/07/10 05:14:52;;;;;;;6.63;2.67;;;18.10;64.70;;;;;;5046872;28;20304;-58
2022/07/10 05:17:18;;;;;;;5.55;2.58;;;18.20;64.60;;;;;;5051073;28;20035;-60
2022/07/10 05:19:43;;;;;;;5.25;3.10;;;18.10;64.40;;;;;;5047507;28;20088;-58
2022/07/10 05:22:09;;;;;;;5.18;2.38;;;18.20;64.50;;;;;;5056328;28;20041;-59
2022/07/10 05:24:35;;;;;;;4.32;2.35;;;18.20;64.60;;;;;;5059843;28;20047;-58
2022/07/10 05:27:02;;;;;;;2.17;1.90;;;18.30;64.80;;;;;;5046808;28;20045;-60
2022/07/10 05:29:28;;;;;;;4.25;2.03;;;18.30;64.70;;;;;;5052442;28;20121;-59
2022/07/10 05:31:54;;;;;;;5.30;2.17;;;18.30;64.60;;;;;;5067320;28;20028;-59
2022/07/10 05:34:19;;;;;;;3.42;2.15;;;18.40;64.40;;;;;;5043909;28;20025;-59
2022/07/10 05:36:45;;;;;;;4.30;2.22;;;18.50;64.30;;;;;;5053349;28;20029;-59
2022/07/10 05:39:11;;;;;;;4.25;2.97;;;18.60;63.90;;;;;;5063841;28;20029;-60
2022/07/10 05:41:36;;;;;;;3.22;2.40;;;18.60;63.60;;;;;;5047193;28;20041;-59
2022/07/10 05:44:02;;;;;;;8.20;2.33;;;18.60;63.60;;;;;;5046476;28;20044;-58
2022/07/10 05:46:28;;;;;;;3.75;2.17;;;18.60;63.50;;;;;;5059525;28;20024;-59
2022/07/10 05:48:54;;;;;;;5.35;2.25;;;18.60;63.10;;;;;;5044933;28;20460;-60
2022/07/10 05:51:20;;;;;;;3.97;2.10;;;18.60;63.00;;;;;;5054861;28;20030;-58
2022/07/10 05:53:45;;;;;;;9.82;2.35;;;18.50;63.10;;;;;;5044602;28;20033;-60
2022/07/10 05:56:11;;;;;;;4.47;2.20;;;18.60;63.20;;;;;;5064766;28;20044;-59
2022/07/10 05:58:37;;;;;;;9.70;2.15;;;18.50;63.30;;;;;;5053084;28;20044;-60
2022/07/10 06:01:02;;;;;;;4.28;2.15;;;18.60;63.40;;;;;;5055104;28;20041;-59
2022/07/10 06:03:28;;;;;;;5.18;1.70;;;18.60;63.60;;;;;;5046330;28;20021;-59
2022/07/10 06:05:54;;;;;;;3.92;1.80;;;18.70;63.50;;;;;;5053517;28;20025;-59
2022/07/10 06:08:20;;;;;;;5.85;1.90;;;18.70;63.00;;;;;;5058112;28;20036;-58
2022/07/10 06:10:45;;;;;;;9.02;2.00;;;18.70;62.80;;;;;;5044923;28;20132;-58
2022/07/10 06:13:12;;;;;;;2.28;1.60;;;18.80;62.80;;;;;;5046512;28;20779;-59
2022/07/10 06:15:37;;;;;;;3.83;2.03;;;18.80;62.60;;;;;;5045635;28;20037;-58
2022/07/10 06:18:03;;;;;;;5.43;1.45;;;18.90;62.50;;;;;;5051223;28;20099;-60
2022/07/10 06:20:29;;;;;;;7.30;2.00;;;18.90;62.20;;;;;;5046545;28;20025;-59
2022/07/10 06:22:55;;;;;;;5.50;1.83;;;19.00;61.90;;;;;;5065785;28;20029;-59
2022/07/10 06:25:20;;;;;;;5.63;1.80;;;19.10;61.50;;;;;;5043482;28;20128;-58
2022/07/10 06:27:46;;;;;;;7.05;1.65;;;19.10;61.50;;;;;;5054022;28;20033;-59
2022/07/10 06:30:12;;;;;;;2.08;1.40;;;19.10;61.50;;;;;;5045767;28;20033;-59
2022/07/10 06:32:38;;;;;;;6.85;1.50;;;19.10;61.50;;;;;;5037859;28;20018;-58
2022/07/10 06:35:05;;;;;;;3.60;1.52;;;19.10;61.10;;;;;;5065051;28;20061;-58
2022/07/10 06:37:31;;;;;;;3.00;1.35;;;19.10;60.70;;;;;;5041056;28;20026;-58
2022/07/10 06:39:57;;;;;;;4.50;1.40;;;19.10;60.10;;;;;;5060361;28;20029;-58
2022/07/10 06:42:22;;;;;;;3.35;1.50;;;19.10;60.30;;;;;;5054881;28;20031;-59
2022/07/10 06:44:48;;;;;;;4.00;1.65;;;19.10;60.50;;;;;;5060465;28;20732;-59
2022/07/10 06:50:02;;;;;;;2.17;1.15;;;19.20;60.00;;;;;;5030206;28;20384;-60
2022/07/10 06:52:28;;;;;;;5.75;1.58;;;19.30;59.50;;;;;;5048803;28;20026;-59
2022/07/10 06:54:54;;;;;;;4.82;1.35;;;19.40;59.70;;;;;;5046363;28;20128;-59
2022/07/10 06:57:20;;;;;;;3.50;1.30;;;19.40;59.50;;;;;;5051750;28;20503;-58
2022/07/10 06:59:46;;;;;;;4.20;1.50;;;19.50;59.10;;;;;;5041920;28;20021;-59
2022/07/10 07:02:12;;;;;;;3.75;1.33;;;19.50;58.70;;;;;;5055659;28;20048;-59
2022/07/10 07:04:37;;;;;;;2.95;1.20;;;19.50;58.70;;;;;;5056924;28;20045;-59
2022/07/10 07:07:04;;;;;;;7.88;1.50;;;19.50;58.80;;;;;;5043466;28;20032;-60
2022/07/10 07:09:29;;;;;;;5.50;1.60;;;19.40;58.70;;;;;;5045834;28;20029;-59
2022/07/10 07:11:55;;;;;;;2.17;1.27;;;19.40;58.60;;;;;;5048724;28;20033;-59
2022/07/10 07:14:21;;;;;;;9.45;1.67;;;19.40;58.60;;;;;;5049680;28;20360;-61
2022/07/10 07:16:57;;;;;;;2.90;1.40;;;19.40;58.00;;;;;;5043763;28;20064;-59
2022/07/10 07:19:30;;;;;;;4.28;1.55;;;19.40;58.00;;;;;;5045398;28;20085;-59
2022/07/10 07:24:42;;;;;;;5.07;1.40;;;19.50;58.20;;;;;;5039374;28;20061;-59
2022/07/10 07:27:08;;;;;;;2.67;1.10;;;19.60;58.20;;;;;;4998428;28;20021;-60
2022/07/10 07:29:34;;;;;;;3.58;1.02;;;19.70;57.70;;;;;;5045528;28;20053;-59
2022/07/10 07:32:00;;;;;;;2.30;1.10;;;19.80;56.90;;;;;;5046138;28;20460;-59
2022/07/10 07:34:26;;;;;;;3.47;1.17;;;19.90;56.30;;;;;;5044270;28;20034;-60
2022/07/10 07:36:52;;;;;;;2.88;1.10;;;19.90;56.20;;;;;;5045521;28;20028;-59
2022/07/10 07:39:17;;;;;;;3.13;1.15;;;19.90;55.70;;;;;;5044296;28;20061;-59
2022/07/10 07:41:43;;;;;;;3.05;1.10;;;20.00;55.80;;;;;;5042660;28;20076;-59
2022/07/10 07:44:08;;;;;;;2.65;1.20;;;20.00;55.40;;;;;;5049235;28;20029;-59
2022/07/10 07:46:34;;;;;;;5.50;1.38;;;20.00;55.40;;;;;;5040076;28;20097;-59
2022/07/10 07:49:00;;;;;;;8.10;1.30;;;20.00;55.50;;;;;;5050293;28;20037;-58
2022/07/10 07:51:26;;;;;;;3.10;0.98;;;20.00;55.40;;;;;;5063253;28;20021;-58
2022/07/10 07:53:51;;;;;;;3.53;1.20;;;20.00;55.40;;;;;;5046152;28;20071;-58
2022/07/10 07:56:18;;;;;;;3.80;1.20;;;20.10;55.40;;;;;;5047958;28;20030;-59
2022/07/10 07:58:45;;;;;;;7.07;1.80;;;20.10;55.30;;;;;;5055733;28;20021;-58
2022/07/10 08:01:10;;;;;;;4.90;1.27;;;20.20;55.40;;;;;;5048487;28;20060;-59
2022/07/10 08:03:36;;;;;;;3.55;1.00;;;20.20;55.00;;;;;;5050672;28;20073;-59
2022/07/10 08:06:02;;;;;;;5.45;1.00;;;20.20;54.80;;;;;;5055282;28;20120;-59
2022/07/10 08:08:28;;;;;;;2.35;1.15;;;20.20;54.80;;;;;;5048734;28;20029;-59
2022/07/10 08:10:54;;;;;;;1.70;0.90;;;20.30;55.10;;;;;;5052931;28;20018;-59
2022/07/10 08:13:21;;;;;;;1.67;0.82;;;20.30;55.30;;;;;;5051015;28;20092;-60
2022/07/10 08:15:49;;;;;;;3.35;1.20;;;20.40;55.40;;;;;;5046939;28;20085;-59
2022/07/10 08:18:16;;;;;;;1.55;0.80;;;20.50;55.00;;;;;;5051236;28;20514;-59
2022/07/10 08:20:42;;;;;;;2.78;1.33;;;20.60;54.80;;;;;;5069105;28;20082;-59
2022/07/10 08:23:08;;;;;;;5.82;1.13;;;20.70;53.70;;;;;;5048018;28;20455;-60
2022/07/10 08:25:35;;;;;;;3.85;1.10;;;20.80;53.00;;;;;;5038993;28;20067;-59
2022/07/10 08:28:05;;;;;;;3.35;1.05;;;20.80;53.20;;;;;;5041110;28;20026;-59
2022/07/10 08:30:32;;;;;;;4.18;0.80;;;20.90;51.90;;;;;;5039910;28;20014;-58
2022/07/10 08:32:58;;;;;;;3.42;0.90;;;20.90;52.70;;;;;;5043849;28;20029;-59
2022/07/10 08:35:24;;;;;;;3.63;0.90;;;21.00;52.20;;;;;;5048774;28;20033;-58
2022/07/10 08:37:50;;;;;;;2.40;0.82;;;21.10;51.40;;;;;;5052992;28;20032;-61
2022/07/10 08:40:18;;;;;;;3.92;1.20;;;21.10;50.30;;;;;;5046610;28;20080;-61
2022/07/10 08:42:45;;;;;;;3.13;0.88;;;21.00;51.00;;;;;;5046721;28;21907;-59
2022/07/10 08:45:12;;;;;;;2.65;0.77;;;21.00;51.30;;;;;;5045349;28;20029;-59
2022/07/10 08:47:41;;;;;;;3.58;1.00;;;21.10;50.90;;;;;;5048803;28;20022;-59
2022/07/10 08:50:27;;;;;;;3.67;1.15;;;21.20;50.70;;;;;;5047795;28;20026;-58
2022/07/10 08:53:01;;;;;;;2.38;0.82;;;21.20;49.20;;;;;;5041019;28;20043;-59
2022/07/10 08:55:27;;;;;;;3.73;0.90;;;21.30;49.80;;;;;;5050104;28;20052;-59
2022/07/10 08:57:55;;;;;;;2.28;0.80;;;21.30;49.80;;;;;;5042404;28;20100;-60
2022/07/10 09:00:22;;;;;;;3.08;0.70;;;21.40;50.00;;;;;;5043760;28;20033;-60
2022/07/10 09:02:47;;;;;;;1.65;0.85;;;21.40;49.40;;;;;;5054664;28;20037;-60
2022/07/10 09:05:14;;;;;;;4.85;0.98;;;21.50;49.50;;;;;;5051626;28;20024;-59
2022/07/10 09:07:41;;;;;;;2.50;1.00;;;21.50;49.10;;;;;;5044917;28;20044;-59
2022/07/10 09:10:09;;;;;;;3.80;1.15;;;21.60;48.40;;;;;;5053355;28;20384;-59
2022/07/10 09:13:01;;;;;;;4.78;1.20;;;21.70;48.30;;;;;;5045921;28;20032;-59
2022/07/10 09:15:31;;;;;;;2.78;1.00;;;21.70;48.20;;;;;;5046635;28;20036;-59
2022/07/10 09:18:00;;;;;;;2.70;1.00;;;21.80;48.50;;;;;;5050202;28;20038;-60
2022/07/10 09:20:37;;;;;;;2.45;0.95;;;21.80;48.10;;;;;;5052252;28;20064;-61
2022/07/10 09:23:25;;;;;;;4.45;1.33;;;21.80;47.50;;;;;;5049802;28;20036;-60
2022/07/10 09:25:52;;;;;;;2.22;0.82;;;21.80;48.10;;;;;;5027135;28;20061;-60
2022/07/10 09:28:20;;;;;;;2.40;1.00;;;21.90;48.90;;;;;;4947717;28;20048;-60
2022/07/10 09:30:47;;;;;;;2.63;0.90;;;22.00;48.40;;;;;;5049222;28;20051;-59
2022/07/10 09:33:26;;;;;;;2.28;0.95;;;22.10;48.30;;;;;;5045389;28;20034;-60
2022/07/10 09:36:12;;;;;;;2.97;0.90;;;22.30;46.80;;;;;;5038448;28;20064;-59
2022/07/10 09:38:43;;;;;;;2.92;1.00;;;22.30;46.90;;;;;;5044519;28;20044;-60
2022/07/10 09:41:24;;;;;;;3.00;1.00;;;22.40;45.50;;;;;;5048270;28;20080;-60
2022/07/10 09:43:58;;;;;;;3.25;0.90;;;22.40;45.40;;;;;;5051027;28;20025;-60
2022/07/10 09:46:28;;;;;;;3.63;1.27;;;22.30;46.10;;;;;;5043404;28;20047;-60
2022/07/10 09:49:03;;;;;;;5.50;0.98;;;22.30;45.90;;;;;;5042833;28;20075;-61
2022/07/10 09:51:39;;;;;;;2.63;0.80;;;22.20;45.60;;;;;;5052912;28;20033;-61
2022/07/10 09:54:07;;;;;;;2.45;0.68;;;22.10;45.60;;;;;;5055213;28;20049;-61
2022/07/10 09:56:39;;;;;;;2.53;1.00;;;22.10;46.60;;;;;;5044930;28;20025;-62
2022/07/10 09:59:12;;;;;;;1.33;0.70;;;22.00;45.70;;;;;;5046579;28;20029;-58
2022/07/10 10:01:46;;;;;;;1.58;0.70;;;22.00;45.40;;;;;;5043334;28;20108;-59
2022/07/10 10:04:13;;;;;;;2.20;0.90;;;21.90;46.20;;;;;;5037634;28;20389;-60
2022/07/10 10:06:40;;;;;;;3.83;0.90;;;21.90;46.10;;;;;;5043531;28;20041;-60
2022/07/10 10:09:15;;;;;;;2.60;1.05;;;21.80;46.40;;;;;;5048008;28;20530;-61
2022/07/10 10:11:45;;;;;;;4.13;0.93;;;21.80;46.50;;;;;;5044084;28;20033;-61
2022/07/10 10:14:12;;;;;;;0.75;0.70;;;21.70;46.80;;;;;;5047765;28;20049;-60
2022/07/10 10:16:43;;;;;;;3.33;1.08;;;21.80;46.90;;;;;;5042754;28;20029;-59
2022/07/10 10:21:57;;;;;;;3.92;0.95;;;21.80;46.30;;;;;;5042134;28;20060;-61
2022/07/10 10:24:25;;;;;;;3.97;1.05;;;21.70;45.80;;;;;;5052769;28;20055;-59
2022/07/10 10:26:51;;;;;;;3.22;1.00;;;21.60;45.90;;;;;;5052461;28;20030;-60
2022/07/10 10:29:17;;;;;;;2.75;0.98;;;21.60;46.40;;;;;;5048236;28;20447;-59
2022/07/10 10:31:44;;;;;;;2.20;0.90;;;21.50;46.90;;;;;;5042427;28;20041;-59
2022/07/10 10:34:09;;;;;;;2.17;0.75;;;21.60;47.10;;;;;;5044392;28;20022;-58
2022/07/10 10:36:44;;;;;;;2.00;0.82;;;21.70;47.30;;;;;;5047043;28;20052;-59
2022/07/10 10:39:16;;;;;;;2.35;1.17;;;21.90;47.40;;;;;;5036187;28;20029;-61
2022/07/10 10:41:54;;;;;;;2.03;0.70;;;22.00;46.40;;;;;;5043330;28;20132;-59
2022/07/10 10:44:20;;;;;;;1.83;0.70;;;22.20;45.90;;;;;;5044135;28;20053;-57
2022/07/10 10:47:00;;;;;;;2.95;0.95;;;22.30;45.50;;;;;;5046243;28;20044;-59
2022/07/10 10:49:27;;;;;;;2.85;1.08;;;22.30;44.70;;;;;;5047804;28;20356;-61
2022/07/10 10:52:06;;;;;;;1.67;0.93;;;22.40;45.20;;;;;;5043513;28;20033;-59
2022/07/10 10:55:03;;;;;;;4.35;1.00;;;22.40;45.40;;;;;;5064929;28;20431;-60
2022/07/10 10:57:32;;;;;;;4.72;1.35;;;22.40;45.40;;;;;;5055156;28;20025;-60
2022/07/10 10:59:59;;;;;;;2.50;0.90;;;22.30;46.00;;;;;;5057425;28;20117;-59
2022/07/10 11:02:27;;;;;;;2.28;0.85;;;22.40;46.30;;;;;;5037967;28;20037;-59
2022/07/10 11:05:31;;;;;;;2.78;0.98;;;22.50;46.00;;;;;;5054657;28;20037;-59
2022/07/10 11:08:00;;;;;;;6.03;1.10;;;22.70;45.90;;;;;;5039325;28;20082;-59
2022/07/10 11:10:45;;;;;;;1.98;1.10;;;22.80;45.40;;;;;;5051211;28;20028;-60
2022/07/10 11:13:18;;;;;;;1.75;0.82;;;22.90;44.50;;;;;;5045424;28;20029;-59
2022/07/10 11:15:46;;;;;;;2.25;0.93;;;23.00;44.60;;;;;;5059087;28;20021;-60
2022/07/10 11:18:15;;;;;;;4.38;0.90;;;23.10;43.90;;;;;;5045078;28;20021;-60
2022/07/10 11:20:51;;;;;;;1.35;0.60;;;23.10;43.90;;;;;;5058059;28;20409;-61
2022/07/10 11:23:54;;;;;;;3.05;1.15;;;23.20;43.20;;;;;;5037616;28;20052;-59
2022/07/10 11:26:22;;;;;;;2.55;0.80;;;23.20;42.30;;;;;;5057952;28;20059;-60
2022/07/10 11:28:57;;;;;;;1.55;0.70;;;23.30;42.90;;;;;;5040499;28;20052;-59
2022/07/10 11:31:24;;;;;;;1.73;0.90;;;23.10;42.50;;;;;;5065770;28;20071;-60
2022/07/10 11:33:55;;;;;;;4.00;1.10;;;23.10;42.40;;;;;;5042810;28;20037;-61
2022/07/10 11:36:28;;;;;;;3.83;1.02;;;23.00;43.00;;;;;;5029329;28;20021;-60
2022/07/10 11:38:59;;;;;;;2.92;0.77;;;23.10;43.20;;;;;;5045267;28;20029;-64
2022/07/10 11:41:25;;;;;;;2.33;0.80;;;23.10;43.40;;;;;;5038252;28;20431;-59
2022/07/10 11:44:17;;;;;;;1.02;0.60;;;23.30;42.60;;;;;;5029979;28;20022;-60
2022/07/10 11:46:48;;;;;;;3.22;0.90;;;23.50;41.50;;;;;;5028249;28;20290;-59
2022/07/10 11:49:14;;;;;;;1.27;0.70;;;23.60;41.30;;;;;;5029639;28;20453;-60
2022/07/10 11:51:41;;;;;;;2.30;0.70;;;23.60;41.90;;;;;;5046292;28;20034;-61
2022/07/10 11:54:13;;;;;;;2.45;0.73;;;23.60;42.00;;;;;;5042462;28;20091;-59
2022/07/10 11:56:43;;;;;;;3.92;0.60;;;23.60;41.90;;;;;;5040141;28;20083;-60
2022/07/10 11:59:10;;;;;;;2.17;0.70;;;23.60;41.60;;;;;;5043208;28;20044;-60
2022/07/10 12:01:44;;;;;;;1.75;0.85;;;23.60;42.60;;;;;;5047231;28;20087;-58
2022/07/10 12:04:11;;;;;;;4.57;0.90;;;23.70;41.90;;;;;;5032366;28;20563;-58
2022/07/10 12:06:41;;;;;;;2.78;0.85;;;23.70;41.90;;;;;;5036657;28;20029;-58
2022/07/10 12:09:14;;;;;;;2.30;0.75;;;23.80;41.60;;;;;;5027526;28;20014;-58
2022/07/10 12:11:41;;;;;;;1.55;0.68;;;23.80;41.50;;;;;;5031007;28;20032;-60
2022/07/10 12:14:18;;;;;;;1.42;0.80;;;23.70;40.70;;;;;;5029922;28;20026;-59
2022/07/10 12:16:46;;;;;;;1.70;0.60;;;23.60;40.70;;;;;;5011055;28;20041;-59
2022/07/10 12:19:16;;;;;;;4.40;1.05;;;23.50;41.10;;;;;;5036674;28;20035;-58
2022/07/10 12:21:44;;;;;;;3.05;1.00;;;23.30;41.20;;;;;;5031443;28;20045;-58
2022/07/10 12:24:12;;;;;;;2.90;1.40;;;23.40;41.90;;;;;;5028178;28;20093;-58
2022/07/10 12:26:41;;;;;;;3.63;0.73;;;23.40;41.90;;;;;;5027227;28;20040;-59
2022/07/10 12:29:22;;;;;;;1.65;0.70;;;23.60;41.90;;;;;;5040044;28;20119;-59
2022/07/10 12:31:49;;;;;;;4.75;1.33;;;23.70;40.70;;;;;;5034578;28;20068;-60
2022/07/10 12:34:16;;;;;;;3.75;0.82;;;23.80;40.40;;;;;;5032357;28;20673;-61
2022/07/10 12:36:47;;;;;;;1.73;0.80;;;23.80;40.50;;;;;;5034681;28;20040;-59
2022/07/10 12:39:14;;;;;;;1.92;0.60;;;23.90;39.20;;;;;;5034132;28;20083;-59
2022/07/10 12:42:03;;;;;;;1.48;0.70;;;23.90;39.60;;;;;;5028454;28;20079;-60
2022/07/10 12:44:46;;;;;;;0.75;0.50;;;23.90;38.60;;;;;;5029001;28;20033;-58
2022/07/10 12:47:15;;;;;;;4.32;0.85;;;24.00;40.20;;;;;;5042908;28;20456;-60
2022/07/10 12:50:03;;;;;;;1.33;0.65;;;24.10;40.70;;;;;;5042050;28;20030;-59
2022/07/10 12:52:34;;;;;;;2.83;0.70;;;24.20;39.30;;;;;;5062820;28;20029;-58
2022/07/10 12:55:13;;;;;;;2.78;0.70;;;24.30;38.00;;;;;;5045348;28;20128;-60
2022/07/10 12:57:56;;;;;;;1.23;0.60;;;24.30;38.80;;;;;;5047159;28;20434;-60
2022/07/10 13:00:30;;;;;;;2.60;0.70;;;24.30;38.50;;;;;;5053564;28;20096;-61
2022/07/10 13:03:00;;;;;;;2.42;0.90;;;24.30;37.90;;;;;;5045764;28;20036;-58